createdAt,value
2018-03-15T00:03:25.700Z,5.60
2018-03-15T00:05:53.165Z,5.60
2018-03-15T00:08:20.662Z,5.40
2018-03-15T00:10:48.325Z,5.40
2018-03-15T00:13:15.823Z,5.40
2018-03-15T00:15:43.255Z,5.30
2018-03-15T00:18:11.493Z,5.40
2018-03-15T00:20:39.024Z,5.30
2018-03-15T00:23:06.513Z,5.60
2018-03-15T00:25:33.973Z,5.60
2018-03-15T00:28:01.454Z,5.60
2018-03-15T00:30:28.926Z,5.60
2018-03-15T00:32:57.342Z,5.40
2018-03-15T00:35:24.758Z,5.40
2018-03-15T00:37:52.219Z,5.50
2018-03-15T00:40:20.466Z,5.30
2018-03-15T00:42:48.018Z,5.30
2018-03-15T00:45:15.595Z,5.30
2018-03-15T00:47:43.143Z,5.50
2018-03-15T00:50:10.714Z,5.60
2018-03-15T00:52:38.950Z,5.50
2018-03-15T00:55:06.562Z,5.50
2018-03-15T00:57:34.806Z,5.50
2018-03-15T01:00:02.365Z,5.40
2018-03-15T01:02:29.838Z,5.30
2018-03-15T01:04:57.310Z,5.20
2018-03-15T01:07:25.541Z,5.10
2018-03-15T01:09:53.012Z,5.10
2018-03-15T01:12:20.477Z,5.10
2018-03-15T01:14:47.980Z,5.20
2018-03-15T01:17:15.596Z,5.20
2018-03-15T01:19:43.056Z,5.20
2018-03-15T01:22:11.313Z,5.10
2018-03-15T01:24:38.853Z,5.10
2018-03-15T01:27:06.331Z,5.10
2018-03-15T01:29:34.565Z,5.30
2018-03-15T01:32:02.070Z,5.20
2018-03-15T01:34:29.524Z,5.30
2018-03-15T01:36:57.087Z,5.40
2018-03-15T01:39:24.558Z,5.50
2018-03-15T01:41:52.851Z,5.50
2018-03-15T01:44:20.381Z,5.40
2018-03-15T01:46:47.849Z,5.50
2018-03-15T01:49:16.107Z,5.40
2018-03-15T01:51:43.566Z,5.40
2018-03-15T01:54:11.838Z,5.50
2018-03-15T01:56:39.314Z,5.50
2018-03-15T01:59:07.550Z,5.60
2018-03-15T02:01:35.019Z,5.50
2018-03-15T02:04:02.591Z,5.50
2018-03-15T02:06:30.138Z,5.50
2018-03-15T02:08:57.610Z,5.50
2018-03-15T02:11:25.078Z,5.50
2018-03-15T02:13:53.300Z,5.50
2018-03-15T02:16:20.781Z,5.40
2018-03-15T02:18:48.349Z,5.50
2018-03-15T02:21:15.902Z,5.40
2018-03-15T02:23:43.460Z,5.20
2018-03-15T02:26:10.930Z,5.20
2018-03-15T02:28:39.166Z,5.10
2018-03-15T02:31:06.625Z,5.00
2018-03-15T02:33:34.113Z,5.10
2018-03-15T02:36:01.586Z,5.10
2018-03-15T02:38:29.902Z,5.10
2018-03-15T02:40:57.371Z,5.10
2018-03-15T02:43:24.842Z,5.10
2018-03-15T02:45:52.308Z,5.20
2018-03-15T02:48:19.778Z,5.30
2018-03-15T02:50:47.329Z,5.30
2018-03-15T02:53:15.557Z,5.30
2018-03-15T02:55:43.640Z,5.20
2018-03-15T02:58:11.172Z,5.20
2018-03-15T03:00:38.578Z,5.10
2018-03-15T03:03:06.065Z,5.00
2018-03-15T03:05:33.616Z,5.10
2018-03-15T03:08:02.585Z,5.10
2018-03-15T03:10:30.158Z,5.00
2018-03-15T03:12:57.770Z,5.20
2018-03-15T03:15:25.225Z,5.10
2018-03-15T03:17:52.735Z,5.10
2018-03-15T03:20:21.719Z,5.10
2018-03-15T03:22:49.277Z,5.10
2018-03-15T03:25:16.769Z,5.10
2018-03-15T03:27:44.997Z,5.00
2018-03-15T03:30:12.487Z,4.90
2018-03-15T03:32:39.945Z,4.90
2018-03-15T03:35:08.200Z,4.90
2018-03-15T03:37:35.670Z,4.80
2018-03-15T03:40:03.172Z,4.80
2018-03-15T03:42:30.729Z,4.70
2018-03-15T03:44:58.194Z,4.70
2018-03-15T03:47:25.653Z,4.70
2018-03-15T03:49:53.160Z,4.80
2018-03-15T03:52:21.395Z,4.70
2018-03-15T03:54:48.895Z,4.60
2018-03-15T03:57:17.158Z,4.70
2018-03-15T03:59:44.713Z,4.60
2018-03-15T04:02:12.177Z,4.70
2018-03-15T04:04:39.742Z,4.70
2018-03-15T04:07:08.013Z,4.70
2018-03-15T04:09:35.478Z,4.60
2018-03-15T04:12:03.721Z,4.80
2018-03-15T04:14:31.205Z,4.70
2018-03-15T04:16:58.673Z,4.80
2018-03-15T04:19:26.942Z,4.70
2018-03-15T04:21:55.178Z,4.80
2018-03-15T04:24:22.640Z,4.70
2018-03-15T04:26:50.109Z,4.70
2018-03-15T04:29:17.578Z,4.70
2018-03-15T04:31:45.087Z,4.70
2018-03-15T04:34:12.597Z,4.70
2018-03-15T04:36:40.061Z,4.80
2018-03-15T04:39:08.306Z,4.80
2018-03-15T04:41:35.893Z,4.70
2018-03-15T04:44:04.133Z,4.90
2018-03-15T04:46:31.597Z,4.80
2018-03-15T04:48:59.060Z,4.90
2018-03-15T04:51:26.531Z,4.90
2018-03-15T04:53:53.992Z,5.00
2018-03-15T04:56:22.255Z,4.90
2018-03-15T04:58:49.733Z,4.80
2018-03-15T05:01:17.965Z,4.90
2018-03-15T05:03:45.469Z,4.80
2018-03-15T05:06:13.701Z,4.80
2018-03-15T05:08:41.185Z,4.70
2018-03-15T05:11:09.419Z,4.90
2018-03-15T05:13:36.905Z,4.80
2018-03-15T05:16:04.465Z,4.80
2018-03-15T05:18:32.031Z,4.80
2018-03-15T05:20:59.493Z,4.80
2018-03-15T05:23:26.951Z,4.70
2018-03-15T05:25:55.187Z,4.50
2018-03-15T05:28:22.655Z,4.50
2018-03-15T05:30:50.129Z,4.70
2018-03-15T05:33:17.682Z,4.70
2018-03-15T05:35:45.154Z,4.80
2018-03-15T05:38:12.748Z,4.80
2018-03-15T05:40:41.031Z,4.80
2018-03-15T05:43:08.494Z,4.80
2018-03-15T05:45:35.957Z,4.90
2018-03-15T05:48:03.434Z,4.90
2018-03-15T05:50:31.006Z,4.80
2018-03-15T05:52:58.578Z,4.80
2018-03-15T05:55:26.134Z,4.90
2018-03-15T05:57:53.691Z,4.90
2018-03-15T06:00:21.154Z,4.80
2018-03-15T06:02:49.403Z,5.00
2018-03-15T06:05:16.860Z,4.90
2018-03-15T06:07:44.347Z,5.00
2018-03-15T06:10:12.646Z,4.90
2018-03-15T06:12:40.168Z,4.90
2018-03-15T06:15:08.407Z,4.80
2018-03-15T06:17:35.896Z,4.80
2018-03-15T06:20:03.361Z,4.70
2018-03-15T06:22:31.643Z,4.80
2018-03-15T06:24:59.910Z,4.80
2018-03-15T06:27:27.388Z,4.70
2018-03-15T06:29:55.622Z,4.80
2018-03-15T06:32:23.162Z,4.70
2018-03-15T06:34:50.629Z,4.70
2018-03-15T06:37:18.177Z,4.70
2018-03-15T06:39:45.641Z,4.80
2018-03-15T06:42:13.105Z,4.70
2018-03-15T06:44:41.403Z,4.60
2018-03-15T06:47:09.679Z,4.60
2018-03-15T06:49:37.234Z,4.50
2018-03-15T06:52:04.722Z,4.60
2018-03-15T06:54:32.233Z,4.70
2018-03-15T06:56:59.702Z,4.60
2018-03-15T06:59:27.953Z,4.80
2018-03-15T07:01:55.489Z,4.70
2018-03-15T07:04:22.949Z,4.90
2018-03-15T07:06:50.504Z,4.90
2018-03-15T07:09:17.965Z,4.70
2018-03-15T07:11:45.449Z,4.50
2018-03-15T07:14:12.922Z,4.60
2018-03-15T07:16:40.459Z,4.60
2018-03-15T07:19:07.942Z,4.50
2018-03-15T07:21:35.418Z,4.50
2018-03-15T07:24:02.894Z,4.70
2018-03-15T07:26:30.462Z,4.70
2018-03-15T07:28:57.977Z,4.80
2018-03-15T07:31:25.461Z,4.80
2018-03-15T07:33:52.931Z,4.60
2018-03-15T07:36:20.464Z,4.60
2018-03-15T07:38:47.898Z,4.60
2018-03-15T07:41:15.367Z,4.70
2018-03-15T07:43:43.630Z,4.90
2018-03-15T07:46:11.106Z,4.80
2018-03-15T07:48:39.441Z,4.90
2018-03-15T07:51:06.994Z,4.80
2018-03-15T07:53:34.465Z,4.80
2018-03-15T07:56:01.940Z,4.70
2018-03-15T07:58:29.405Z,4.70
2018-03-15T08:00:57.654Z,4.80
2018-03-15T08:03:25.328Z,4.80
2018-03-15T08:05:52.787Z,4.80
2018-03-15T08:08:20.259Z,4.80
2018-03-15T08:10:48.509Z,4.80
2018-03-15T08:13:15.978Z,4.70
2018-03-15T08:15:43.467Z,4.80
2018-03-15T08:18:10.933Z,4.70
2018-03-15T08:20:38.453Z,4.70
2018-03-15T08:23:05.902Z,4.80
2018-03-15T08:25:33.371Z,4.80
2018-03-15T08:28:01.605Z,4.80
2018-03-15T08:30:29.090Z,4.80
2018-03-15T08:32:56.653Z,4.70
2018-03-15T08:35:24.202Z,4.70
2018-03-15T08:37:51.820Z,4.70
2018-03-15T08:40:19.912Z,4.70
2018-03-15T08:42:47.380Z,4.70
2018-03-15T08:45:14.845Z,4.80
2018-03-15T08:47:42.339Z,5.00
2018-03-15T08:50:10.595Z,5.00
2018-03-15T08:52:38.143Z,5.00
2018-03-15T08:55:06.490Z,5.20
2018-03-15T08:57:33.959Z,5.10
2018-03-15T09:00:01.439Z,5.30
2018-03-15T09:02:28.909Z,5.30
2018-03-15T09:04:57.370Z,5.10
2018-03-15T09:07:25.446Z,5.10
2018-03-15T09:09:53.002Z,5.10
2018-03-15T09:12:20.570Z,5.20
2018-03-15T09:14:48.124Z,5.30
2018-03-15T09:17:15.594Z,5.30
2018-03-15T09:19:43.825Z,5.40
2018-03-15T09:22:11.318Z,5.40
2018-03-15T09:24:38.861Z,5.60
2018-03-15T09:27:06.416Z,5.60
2018-03-15T09:29:33.978Z,5.70
2018-03-15T09:32:01.517Z,5.60
2018-03-15T09:34:29.125Z,5.40
2018-03-15T09:36:56.535Z,5.40
2018-03-15T09:39:24.117Z,5.50
2018-03-15T09:41:51.595Z,5.40
2018-03-15T09:44:19.845Z,5.60
2018-03-15T09:46:47.404Z,5.50
2018-03-15T09:49:15.020Z,5.60
2018-03-15T09:51:42.527Z,5.50
2018-03-15T09:54:10.006Z,5.50
2018-03-15T09:56:37.490Z,5.50
2018-03-15T09:59:04.973Z,5.60
2018-03-15T10:01:32.462Z,5.70
2018-03-15T10:04:00.718Z,5.80
2018-03-15T10:06:28.192Z,5.70
2018-03-15T10:08:56.475Z,5.80
2018-03-15T10:11:24.794Z,5.90
2018-03-15T10:13:52.301Z,5.80
2018-03-15T10:16:19.788Z,6.00
2018-03-15T10:18:47.253Z,6.00
2018-03-15T10:21:14.731Z,6.00
2018-03-15T10:23:42.233Z,6.10
2018-03-15T10:26:10.478Z,6.00
2018-03-15T10:28:37.960Z,6.00
2018-03-15T10:31:06.212Z,6.00
2018-03-15T10:33:38.244Z,5.90
2018-03-15T10:36:05.721Z,5.90
2018-03-15T10:38:33.194Z,5.90
2018-03-15T10:41:00.772Z,5.70
2018-03-15T10:43:28.329Z,5.70
2018-03-15T10:45:55.830Z,5.90
2018-03-15T10:48:23.450Z,5.80
2018-03-15T10:50:51.730Z,5.70
2018-03-15T10:53:20.108Z,5.80
2018-03-15T10:55:47.668Z,5.70
2018-03-15T10:58:15.914Z,5.90
2018-03-15T11:00:49.131Z,5.90
2018-03-15T11:03:17.385Z,6.30
2018-03-15T11:05:46.376Z,6.20
2018-03-15T11:08:20.103Z,6.30
2018-03-15T11:10:48.388Z,6.50
2018-03-15T11:13:15.874Z,6.50
2018-03-15T11:15:43.388Z,6.50
2018-03-15T11:18:10.927Z,6.50
2018-03-15T11:20:38.510Z,6.30
2018-03-15T11:23:06.806Z,6.30
2018-03-15T11:25:34.298Z,6.30
2018-03-15T11:28:01.790Z,6.30
2018-03-15T11:30:29.270Z,6.20
2018-03-15T11:32:57.595Z,6.10
2018-03-15T11:35:25.144Z,6.10
2018-03-15T11:37:52.641Z,6.20
2018-03-15T11:40:20.121Z,6.30
2018-03-15T11:42:48.390Z,6.20
2018-03-15T11:45:16.705Z,6.10
2018-03-15T11:47:44.175Z,6.10
2018-03-15T11:50:11.670Z,6.10
2018-03-15T11:52:39.169Z,6.10
2018-03-15T11:55:06.647Z,6.10
2018-03-15T11:57:34.217Z,6.10
2018-03-15T12:00:01.752Z,6.00
2018-03-15T12:02:29.221Z,6.00
2018-03-15T12:04:56.847Z,5.90
2018-03-15T12:07:24.316Z,5.90
2018-03-15T12:09:51.808Z,5.90
2018-03-15T12:12:19.286Z,5.90
2018-03-15T12:14:46.772Z,6.00
2018-03-15T12:17:14.293Z,6.10
2018-03-15T12:19:41.764Z,6.20
2018-03-15T12:22:09.230Z,6.10
2018-03-15T12:24:37.473Z,6.30
2018-03-15T12:27:04.965Z,6.20
2018-03-15T12:29:33.202Z,6.60
2018-03-15T12:32:00.666Z,6.50
2018-03-15T12:34:28.210Z,6.60
2018-03-15T12:36:55.796Z,6.60
2018-03-15T12:39:23.273Z,6.50
2018-03-15T12:41:50.742Z,6.60
2018-03-15T12:44:18.973Z,6.90
2018-03-15T12:46:46.599Z,6.90
2018-03-15T12:49:14.057Z,7.00
2018-03-15T12:51:41.533Z,7.10
2018-03-15T12:54:09.026Z,7.20
2018-03-15T12:56:36.497Z,7.30
2018-03-15T12:59:04.729Z,7.50
2018-03-15T13:01:32.204Z,7.40
2018-03-15T13:03:59.715Z,7.30
2018-03-15T13:06:27.187Z,7.20
2018-03-15T13:08:54.700Z,7.30
2018-03-15T13:11:22.984Z,7.20
2018-03-15T13:13:50.434Z,7.10
2018-03-15T13:16:18.671Z,7.20
2018-03-15T13:18:46.147Z,7.10
2018-03-15T13:21:13.613Z,7.10
2018-03-15T13:23:41.846Z,7.20
2018-03-15T13:26:09.314Z,7.10
2018-03-15T13:28:36.802Z,7.10
2018-03-15T13:31:05.030Z,7.10
2018-03-15T13:33:32.512Z,7.10
2018-03-15T13:35:59.979Z,7.20
2018-03-15T13:38:28.219Z,7.00
2018-03-15T13:40:55.818Z,6.90
2018-03-15T13:43:23.476Z,7.20
2018-03-15T13:45:51.045Z,7.20
2018-03-15T13:48:19.360Z,7.20
2018-03-15T13:50:46.831Z,7.20
2018-03-15T13:53:14.312Z,7.10
2018-03-15T13:55:41.778Z,7.00
2018-03-15T13:58:09.438Z,6.80
2018-03-15T14:00:37.000Z,6.70
2018-03-15T14:03:04.474Z,6.70
2018-03-15T14:05:32.706Z,6.70
2018-03-15T14:08:00.169Z,6.60
2018-03-15T14:10:27.641Z,6.60
2018-03-15T14:12:55.204Z,6.50
2018-03-15T14:15:23.433Z,6.70
2018-03-15T14:17:50.902Z,6.60
2018-03-15T14:20:18.380Z,6.60
2018-03-15T14:22:45.885Z,6.70
2018-03-15T14:25:13.359Z,6.70
2018-03-15T14:27:40.826Z,6.80
2018-03-15T14:30:08.329Z,6.90
2018-03-15T14:32:36.561Z,7.10
2018-03-15T14:35:04.029Z,7.00
2018-03-15T14:37:31.602Z,7.10
2018-03-15T14:40:00.583Z,6.80
2018-03-15T14:42:28.053Z,6.80
2018-03-15T14:44:55.636Z,6.80
2018-03-15T14:47:23.881Z,6.80
2018-03-15T14:49:51.357Z,6.70
2018-03-15T14:52:18.916Z,6.80
2018-03-15T14:54:47.192Z,6.70
2018-03-15T14:57:14.687Z,6.60
2018-03-15T14:59:42.158Z,6.70
2018-03-15T15:02:09.625Z,6.60
2018-03-15T15:04:37.107Z,6.60
2018-03-15T15:07:04.731Z,6.60
2018-03-15T15:09:32.234Z,6.50
2018-03-15T15:11:59.697Z,6.50
2018-03-15T15:14:27.953Z,6.70
2018-03-15T15:16:55.443Z,6.60
2018-03-15T15:19:23.677Z,6.30
2018-03-15T15:21:51.160Z,6.30
2018-03-15T15:24:18.617Z,6.30
2018-03-15T15:26:46.094Z,6.30
2018-03-15T15:29:14.322Z,6.40
2018-03-15T15:31:41.807Z,6.40
2018-03-15T15:34:09.286Z,6.40
2018-03-15T15:36:36.830Z,6.40
2018-03-15T15:39:05.066Z,6.50
2018-03-15T15:41:32.558Z,6.40
2018-03-15T15:44:00.829Z,6.50
2018-03-15T15:46:29.074Z,6.60
2018-03-15T15:48:56.550Z,6.50
2018-03-15T15:51:24.045Z,6.60
2018-03-15T15:53:51.518Z,6.60
2018-03-15T15:56:18.974Z,6.60
2018-03-15T15:58:46.472Z,6.50
2018-03-15T16:01:14.007Z,6.60
2018-03-15T16:03:41.491Z,6.50
2018-03-15T16:06:08.970Z,6.60
2018-03-15T16:08:37.205Z,6.40
2018-03-15T16:11:04.677Z,6.40
2018-03-15T16:13:32.237Z,6.40
2018-03-15T16:15:59.704Z,6.50
2018-03-15T16:18:27.174Z,6.40
2018-03-15T16:20:55.434Z,6.10
2018-03-15T16:23:23.759Z,6.00
2018-03-15T16:25:51.232Z,6.00
2018-03-15T16:28:18.697Z,6.10
2018-03-15T16:30:46.169Z,6.10
2018-03-15T16:33:13.738Z,6.20
2018-03-15T16:35:41.297Z,6.20
2018-03-15T16:38:08.761Z,6.10
2018-03-15T16:40:36.220Z,6.10
2018-03-15T16:43:04.517Z,6.10
2018-03-15T16:45:31.949Z,6.10
2018-03-15T16:47:59.450Z,6.10
2018-03-15T16:50:26.954Z,6.10
2018-03-15T16:52:54.414Z,6.20
2018-03-15T16:55:21.973Z,6.10
2018-03-15T16:57:50.942Z,5.90
2018-03-15T17:00:18.810Z,5.90
2018-03-15T17:02:46.273Z,5.90
2018-03-15T17:05:13.745Z,5.90
2018-03-15T17:07:41.303Z,5.90
2018-03-15T17:10:08.860Z,5.80
2018-03-15T17:12:36.421Z,5.90
2018-03-15T17:15:03.889Z,5.90
2018-03-15T17:17:32.149Z,5.90
2018-03-15T17:19:59.710Z,5.80
2018-03-15T17:22:27.266Z,6.00
2018-03-15T17:24:54.840Z,6.00
2018-03-15T17:27:22.305Z,5.90
2018-03-15T17:29:50.526Z,5.80
2018-03-15T17:32:17.998Z,5.80
2018-03-15T17:34:45.467Z,5.80
2018-03-15T17:37:12.961Z,5.70
2018-03-15T17:39:41.186Z,5.70
2018-03-15T17:42:08.654Z,5.60
2018-03-15T17:44:36.117Z,5.70
2018-03-15T17:47:03.683Z,5.70
2018-03-15T17:49:31.142Z,5.80
2018-03-15T17:51:58.607Z,5.80
2018-03-15T17:54:26.848Z,5.80
2018-03-15T17:56:54.313Z,5.70
2018-03-15T17:59:21.781Z,5.70
2018-03-15T18:01:49.250Z,5.60
2018-03-15T18:04:17.516Z,5.70
2018-03-15T18:06:45.816Z,5.50
2018-03-15T18:09:14.065Z,5.40
2018-03-15T18:11:41.527Z,5.40
2018-03-15T18:14:08.996Z,5.40
2018-03-15T18:16:37.249Z,5.30
2018-03-15T18:19:04.759Z,5.20
2018-03-15T18:21:32.227Z,5.30
2018-03-15T18:23:59.691Z,5.30
2018-03-15T18:26:27.205Z,5.30
2018-03-15T18:28:55.442Z,5.30
2018-03-15T18:31:22.907Z,5.20
2018-03-15T18:33:50.387Z,5.20
2018-03-15T18:36:18.604Z,5.20
2018-03-15T18:38:46.110Z,5.10
2018-03-15T18:41:13.576Z,5.20
2018-03-15T18:43:41.810Z,5.20
2018-03-15T18:46:09.291Z,5.20
2018-03-15T18:48:36.753Z,5.20
2018-03-15T18:51:04.213Z,5.20
2018-03-15T18:53:32.438Z,5.20
2018-03-15T18:56:00.080Z,5.10
2018-03-15T18:58:27.543Z,5.10
2018-03-15T19:00:55.014Z,5.20
2018-03-15T19:03:22.473Z,5.20
2018-03-15T19:05:49.947Z,5.10
2018-03-15T19:08:18.396Z,5.10
2018-03-15T19:10:45.908Z,5.00
2018-03-15T19:13:14.187Z,5.00
2018-03-15T19:15:41.729Z,4.90
2018-03-15T19:18:09.214Z,5.00
2018-03-15T19:20:37.468Z,5.00
2018-03-15T19:23:04.930Z,4.90
2018-03-15T19:25:33.165Z,5.00
2018-03-15T19:28:00.637Z,4.90
2018-03-15T19:30:28.105Z,5.00
2018-03-15T19:32:57.105Z,5.00
2018-03-15T19:35:24.569Z,5.00
2018-03-15T19:37:52.842Z,5.10
2018-03-15T19:40:20.268Z,5.00
2018-03-15T19:42:47.732Z,5.10
2018-03-15T19:45:15.194Z,5.00
2018-03-15T19:47:42.677Z,5.00
2018-03-15T19:50:10.918Z,4.90
2018-03-15T19:52:38.397Z,4.80
2018-03-15T19:55:05.861Z,4.80
2018-03-15T19:57:33.422Z,4.70
2018-03-15T20:00:01.654Z,4.80
2018-03-15T20:02:29.129Z,4.80
2018-03-15T20:04:57.146Z,4.80
2018-03-15T20:07:24.610Z,4.70
2018-03-15T20:09:52.087Z,4.70
2018-03-15T20:12:19.688Z,4.70
2018-03-15T20:14:47.243Z,4.70
2018-03-15T20:17:15.477Z,4.60
2018-03-15T20:19:42.952Z,4.50
2018-03-15T20:22:10.410Z,4.50
2018-03-15T20:24:37.908Z,4.50
2018-03-15T20:27:05.446Z,4.60
2018-03-15T20:29:34.436Z,4.40
2018-03-15T20:32:01.900Z,4.40
2018-03-15T20:34:29.393Z,4.50
2018-03-15T20:36:56.918Z,4.50
2018-03-15T20:39:30.036Z,4.40
2018-03-15T20:41:57.502Z,4.40
2018-03-15T20:44:24.974Z,4.50
2018-03-15T20:46:58.168Z,4.50
2018-03-15T20:49:25.669Z,4.50
2018-03-15T20:51:53.146Z,4.50
2018-03-15T20:54:21.415Z,4.40
2018-03-15T20:56:49.658Z,4.40
2018-03-15T20:59:17.233Z,4.30
2018-03-15T21:01:44.696Z,4.40
2018-03-15T21:04:12.196Z,4.30
2018-03-15T21:06:39.662Z,4.30
2018-03-15T21:09:07.152Z,4.20
2018-03-15T21:11:34.621Z,4.20
2018-03-15T21:14:02.094Z,4.20
2018-03-15T21:16:30.457Z,4.20
2018-03-15T21:18:57.945Z,4.10
2018-03-15T21:21:25.413Z,4.20
2018-03-15T21:23:52.919Z,4.10
2018-03-15T21:26:20.433Z,4.10
2018-03-15T21:28:47.993Z,4.10
2018-03-15T21:31:15.465Z,4.20
2018-03-15T21:33:42.936Z,4.20
2018-03-15T21:36:10.422Z,4.20
2018-03-15T21:38:38.659Z,4.20
2018-03-15T21:41:06.116Z,4.10
2018-03-15T21:43:33.581Z,4.10
2018-03-15T21:46:01.041Z,4.10
2018-03-15T21:48:28.496Z,4.10
2018-03-15T21:50:55.961Z,4.20
2018-03-15T21:53:23.506Z,4.10
2018-03-15T21:55:50.994Z,4.10
2018-03-15T21:58:19.232Z,4.10
2018-03-15T22:00:46.700Z,4.00
2018-03-15T22:03:14.187Z,4.10
2018-03-15T22:05:41.661Z,4.20
2018-03-15T22:08:09.130Z,4.20
2018-03-15T22:10:36.632Z,4.00
2018-03-15T22:13:04.092Z,4.00
2018-03-15T22:15:31.752Z,4.10
2018-03-15T22:17:59.212Z,4.10
2018-03-15T22:20:27.651Z,4.00
2018-03-15T22:22:55.152Z,3.90
2018-03-15T22:25:22.705Z,3.90
2018-03-15T22:27:50.169Z,3.90
2018-03-15T22:30:17.727Z,3.90
2018-03-15T22:32:45.442Z,3.90
2018-03-15T22:35:12.923Z,3.90
2018-03-15T22:37:40.394Z,4.00
2018-03-15T22:40:07.921Z,4.00
2018-03-15T22:42:35.409Z,4.10
2018-03-15T22:45:02.866Z,4.20
2018-03-15T22:47:30.349Z,4.10
2018-03-15T22:49:58.585Z,4.00
2018-03-15T22:52:26.064Z,4.00
2018-03-15T22:54:53.521Z,4.00
2018-03-15T22:57:21.089Z,4.00
2018-03-15T22:59:48.540Z,4.00
2018-03-15T23:02:16.021Z,4.00
2018-03-15T23:04:44.410Z,3.90
2018-03-15T23:07:11.877Z,3.80
2018-03-15T23:09:39.357Z,4.00
2018-03-15T23:12:06.830Z,4.00
2018-03-15T23:14:34.291Z,4.00
2018-03-15T23:17:01.755Z,4.00
2018-03-15T23:19:29.308Z,3.90
2018-03-15T23:21:56.794Z,3.80
2018-03-15T23:24:25.027Z,3.80
2018-03-15T23:26:52.481Z,3.80
2018-03-15T23:29:19.942Z,3.80
2018-03-15T23:31:47.414Z,3.80
2018-03-15T23:34:14.926Z,3.80
2018-03-15T23:36:42.393Z,3.80
2018-03-15T23:39:09.866Z,3.70
2018-03-15T23:41:37.356Z,3.70
2018-03-15T23:44:04.901Z,3.80
2018-03-15T23:46:32.367Z,3.60
2018-03-15T23:48:59.835Z,3.60
2018-03-15T23:51:28.074Z,3.60
2018-03-15T23:53:55.532Z,3.50
2018-03-15T23:56:23.100Z,3.60
2018-03-15T23:58:50.616Z,3.50
